ADDS METAR Data INFO
IDs: Format: Raw Decoded Include TAF

Data at: 2120 UTC 23 Apr 2018

KHCR 232115Z AUTO 26015G24KT 10SM CLR 18/M04 A3011 RMK AO2